Terminal Aerodrome Forecast
Issued by NWS

Home | Current Version | Previous Version | Text Only | Print | Product List | Glossary On
Versions: 1 2 3 4 5 6 7 8 9 10 11 12 13 14 15 16
000
FTAK31 PAJN 202325
TAFAPG
TAF
PAPG 202325Z 2100/2124 VRB04KT P6SM VCSH SCT018 OVC035
      TEMPO 2100/2104 OVC018
     FM210500 09004KT 3SM RA BR OVC015 WS020/15035KT
     FM210800 09003KT 3SM RA BR BKN007 OVC012 WS020/16035KT
     FM211900 09005KT 6SM -RA SCT007 OVC015
      AMD LTD TO CLD VIS AND WIND 2106/2115=

USA.gov is the U.S. government's official web portal to all federal, state and local government web resources and services.